sensor_id;sensor_type;location;lat;lon;timestamp;P1;durP1;ratioP1;P2;durP2;ratioP2
9240;SDS011;53485;49.326;9.738;2023-02-03T00:00:44;12.13;;;7.60;;
9240;SDS011;53485;49.326;9.738;2023-02-03T00:03:10;18.00;;;8.13;;
9240;SDS011;53485;49.326;9.738;2023-02-03T00:05:37;13.63;;;7.70;;
9240;SDS011;53485;49.326;9.738;2023-02-03T00:08:03;15.27;;;7.30;;
9240;SDS011;53485;49.326;9.738;2023-02-03T00:10:30;11.57;;;7.17;;
9240;SDS011;53485;49.326;9.738;2023-02-03T00:12:56;19.13;;;8.57;;
9240;SDS011;53485;49.326;9.738;2023-02-03T00:15:23;15.37;;;7.20;;
9240;SDS011;53485;49.326;9.738;2023-02-03T00:17:49;10.63;;;6.83;;
9240;SDS011;53485;49.326;9.738;2023-02-03T00:20:16;14.67;;;7.73;;
9240;SDS011;53485;49.326;9.738;2023-02-03T00:22:43;13.67;;;7.17;;
9240;SDS011;53485;49.326;9.738;2023-02-03T00:25:09;15.30;;;7.17;;
9240;SDS011;53485;49.326;9.738;2023-02-03T00:27:36;12.87;;;7.07;;
9240;SDS011;53485;49.326;9.738;2023-02-03T00:30:03;9.00;;;7.03;;
9240;SDS011;53485;49.326;9.738;2023-02-03T00:32:29;16.40;;;6.97;;
9240;SDS011;53485;49.326;9.738;2023-02-03T00:34:56;12.00;;;6.70;;
9240;SDS011;53485;49.326;9.738;2023-02-03T00:37:22;13.37;;;6.30;;
9240;SDS011;53485;49.326;9.738;2023-02-03T00:39:49;10.07;;;6.63;;
9240;SDS011;53485;49.326;9.738;2023-02-03T00:42:15;12.70;;;6.03;;
9240;SDS011;53485;49.326;9.738;2023-02-03T00:44:42;14.33;;;6.80;;
9240;SDS011;53485;49.326;9.738;2023-02-03T00:47:09;10.43;;;6.77;;
9240;SDS011;53485;49.326;9.738;2023-02-03T00:49:35;11.20;;;5.60;;
9240;SDS011;53485;49.326;9.738;2023-02-03T00:52:02;12.97;;;5.67;;
9240;SDS011;53485;49.326;9.738;2023-02-03T00:54:28;11.77;;;6.20;;
9240;SDS011;53485;49.326;9.738;2023-02-03T00:56:55;9.57;;;6.03;;
9240;SDS011;53485;49.326;9.738;2023-02-03T00:59:21;14.07;;;6.60;;
9240;SDS011;53485;49.326;9.738;2023-02-03T01:01:48;9.77;;;5.97;;
9240;SDS011;53485;49.326;9.738;2023-02-03T01:04:15;11.63;;;6.53;;
9240;SDS011;53485;49.326;9.738;2023-02-03T01:06:41;13.27;;;5.40;;
9240;SDS011;53485;49.326;9.738;2023-02-03T01:09:08;12.03;;;6.47;;
9240;SDS011;53485;49.326;9.738;2023-02-03T01:11:34;12.30;;;6.43;;
9240;SDS011;53485;49.326;9.738;2023-02-03T01:14:01;13.13;;;7.23;;
9240;SDS011;53485;49.326;9.738;2023-02-03T01:16:28;11.80;;;4.97;;
9240;SDS011;53485;49.326;9.738;2023-02-03T01:18:54;14.10;;;5.47;;
9240;SDS011;53485;49.326;9.738;2023-02-03T01:21:21;8.13;;;5.53;;
9240;SDS011;53485;49.326;9.738;2023-02-03T01:23:46;10.87;;;6.23;;
9240;SDS011;53485;49.326;9.738;2023-02-03T01:26:14;7.97;;;5.30;;
9240;SDS011;53485;49.326;9.738;2023-02-03T01:28:39;10.70;;;4.90;;
9240;SDS011;53485;49.326;9.738;2023-02-03T01:31:12;10.97;;;5.80;;
9240;SDS011;53485;49.326;9.738;2023-02-03T01:33:37;9.47;;;5.40;;
9240;SDS011;53485;49.326;9.738;2023-02-03T01:36:03;8.20;;;6.50;;
9240;SDS011;53485;49.326;9.738;2023-02-03T01:38:30;14.80;;;6.53;;
9240;SDS011;53485;49.326;9.738;2023-02-03T01:40:57;12.03;;;7.40;;
9240;SDS011;53485;49.326;9.738;2023-02-03T01:43:31;20.73;;;9.03;;
9240;SDS011;53485;49.326;9.738;2023-02-03T01:45:57;13.97;;;8.77;;
9240;SDS011;53485;49.326;9.738;2023-02-03T01:48:23;19.23;;;10.07;;
9240;SDS011;53485;49.326;9.738;2023-02-03T01:50:49;17.93;;;9.63;;
9240;SDS011;53485;49.326;9.738;2023-02-03T01:53:15;13.17;;;8.37;;
9240;SDS011;53485;49.326;9.738;2023-02-03T01:55:43;15.43;;;9.03;;
9240;SDS011;53485;49.326;9.738;2023-02-03T01:58:10;18.83;;;10.00;;
9240;SDS011;53485;49.326;9.738;2023-02-03T02:00:35;19.73;;;10.13;;
9240;SDS011;53485;49.326;9.738;2023-02-03T02:03:02;14.70;;;9.53;;
9240;SDS011;53485;49.326;9.738;2023-02-03T02:05:31;21.33;;;10.53;;
9240;SDS011;53485;49.326;9.738;2023-02-03T02:07:55;16.57;;;10.30;;
9240;SDS011;53485;49.326;9.738;2023-02-03T02:10:21;19.70;;;10.17;;
9240;SDS011;53485;49.326;9.738;2023-02-03T02:12:48;21.33;;;11.13;;
9240;SDS011;53485;49.326;9.738;2023-02-03T02:15:14;19.87;;;10.73;;
9240;SDS011;53485;49.326;9.738;2023-02-03T02:17:53;21.27;;;10.67;;
9240;SDS011;53485;49.326;9.738;2023-02-03T02:23:10;13.23;;;9.20;;
9240;SDS011;53485;49.326;9.738;2023-02-03T02:25:37;17.00;;;9.43;;
9240;SDS011;53485;49.326;9.738;2023-02-03T02:28:04;16.37;;;9.27;;
9240;SDS011;53485;49.326;9.738;2023-02-03T02:30:35;17.17;;;9.10;;
9240;SDS011;53485;49.326;9.738;2023-02-03T02:35:40;14.37;;;8.50;;
9240;SDS011;53485;49.326;9.738;2023-02-03T02:38:10;16.30;;;8.97;;
9240;SDS011;53485;49.326;9.738;2023-02-03T02:40:42;9.67;;;7.30;;
9240;SDS011;53485;49.326;9.738;2023-02-03T02:43:11;13.33;;;7.03;;
9240;SDS011;53485;49.326;9.738;2023-02-03T02:45:44;10.77;;;6.90;;
9240;SDS011;53485;49.326;9.738;2023-02-03T02:48:11;14.67;;;6.60;;
9240;SDS011;53485;49.326;9.738;2023-02-03T02:50:37;8.30;;;6.87;;
9240;SDS011;53485;49.326;9.738;2023-02-03T02:53:01;15.43;;;7.77;;
9240;SDS011;53485;49.326;9.738;2023-02-03T02:55:29;13.57;;;6.20;;
9240;SDS011;53485;49.326;9.738;2023-02-03T02:57:54;8.83;;;6.30;;
9240;SDS011;53485;49.326;9.738;2023-02-03T03:00:20;12.03;;;7.00;;
9240;SDS011;53485;49.326;9.738;2023-02-03T03:02:46;11.77;;;7.00;;
9240;SDS011;53485;49.326;9.738;2023-02-03T03:05:13;11.50;;;5.87;;
9240;SDS011;53485;49.326;9.738;2023-02-03T03:07:40;6.77;;;5.93;;
9240;SDS011;53485;49.326;9.738;2023-02-03T03:10:06;8.40;;;6.47;;
9240;SDS011;53485;49.326;9.738;2023-02-03T03:12:34;8.60;;;6.67;;
9240;SDS011;53485;49.326;9.738;2023-02-03T03:15:02;8.70;;;5.70;;
9240;SDS011;53485;49.326;9.738;2023-02-03T03:17:27;7.50;;;6.53;;
9240;SDS011;53485;49.326;9.738;2023-02-03T03:19:53;10.57;;;6.77;;
9240;SDS011;53485;49.326;9.738;2023-02-03T03:22:19;9.77;;;6.37;;
9240;SDS011;53485;49.326;9.738;2023-02-03T03:24:46;6.43;;;5.77;;
9240;SDS011;53485;49.326;9.738;2023-02-03T03:27:12;10.97;;;6.67;;
9240;SDS011;53485;49.326;9.738;2023-02-03T03:29:39;9.13;;;6.60;;
9240;SDS011;53485;49.326;9.738;2023-02-03T03:32:05;9.53;;;7.23;;
9240;SDS011;53485;49.326;9.738;2023-02-03T03:34:31;10.13;;;6.23;;
9240;SDS011;53485;49.326;9.738;2023-02-03T03:39:33;10.50;;;6.27;;
9240;SDS011;53485;49.326;9.738;2023-02-03T03:44:29;8.13;;;5.50;;
9240;SDS011;53485;49.326;9.738;2023-02-03T03:46:58;7.90;;;6.17;;
9240;SDS011;53485;49.326;9.738;2023-02-03T03:49:21;7.43;;;5.53;;
9240;SDS011;53485;49.326;9.738;2023-02-03T03:51:50;8.87;;;5.57;;
9240;SDS011;53485;49.326;9.738;2023-02-03T03:54:15;13.40;;;5.97;;
9240;SDS011;53485;49.326;9.738;2023-02-03T03:56:45;7.00;;;5.57;;
9240;SDS011;53485;49.326;9.738;2023-02-03T03:59:07;7.97;;;6.13;;
9240;SDS011;53485;49.326;9.738;2023-02-03T04:01:33;9.13;;;6.63;;
9240;SDS011;53485;49.326;9.738;2023-02-03T04:04:01;9.37;;;5.97;;
9240;SDS011;53485;49.326;9.738;2023-02-03T04:06:26;9.10;;;6.90;;
9240;SDS011;53485;49.326;9.738;2023-02-03T04:08:52;10.00;;;6.17;;
9240;SDS011;53485;49.326;9.738;2023-02-03T04:11:19;6.43;;;5.70;;
9240;SDS011;53485;49.326;9.738;2023-02-03T04:13:51;11.17;;;5.73;;
9240;SDS011;53485;49.326;9.738;2023-02-03T04:16:17;7.80;;;5.83;;
9240;SDS011;53485;49.326;9.738;2023-02-03T04:18:44;9.03;;;5.73;;
9240;SDS011;53485;49.326;9.738;2023-02-03T04:21:11;8.23;;;5.07;;
9240;SDS011;53485;49.326;9.738;2023-02-03T04:23:37;7.47;;;5.03;;
9240;SDS011;53485;49.326;9.738;2023-02-03T04:26:04;8.77;;;4.80;;
9240;SDS011;53485;49.326;9.738;2023-02-03T04:28:31;7.83;;;5.37;;
9240;SDS011;53485;49.326;9.738;2023-02-03T04:31:00;6.93;;;4.57;;
9240;SDS011;53485;49.326;9.738;2023-02-03T04:33:27;5.67;;;4.27;;
9240;SDS011;53485;49.326;9.738;2023-02-03T04:35:53;6.60;;;4.97;;
9240;SDS011;53485;49.326;9.738;2023-02-03T04:38:20;8.77;;;5.57;;
9240;SDS011;53485;49.326;9.738;2023-02-03T04:40:46;7.83;;;5.50;;
9240;SDS011;53485;49.326;9.738;2023-02-03T04:43:13;10.70;;;6.07;;
9240;SDS011;53485;49.326;9.738;2023-02-03T04:45:39;10.57;;;6.03;;
9240;SDS011;53485;49.326;9.738;2023-02-03T04:48:06;10.13;;;7.07;;
9240;SDS011;53485;49.326;9.738;2023-02-03T04:50:32;9.77;;;6.97;;
9240;SDS011;53485;49.326;9.738;2023-02-03T04:52:59;10.23;;;6.97;;
9240;SDS011;53485;49.326;9.738;2023-02-03T04:55:26;11.33;;;7.20;;
9240;SDS011;53485;49.326;9.738;2023-02-03T04:57:54;12.20;;;7.60;;
9240;SDS011;53485;49.326;9.738;2023-02-03T05:00:20;10.43;;;6.97;;
9240;SDS011;53485;49.326;9.738;2023-02-03T05:02:47;16.90;;;8.10;;
9240;SDS011;53485;49.326;9.738;2023-02-03T05:05:13;13.57;;;8.60;;
9240;SDS011;53485;49.326;9.738;2023-02-03T05:07:40;12.57;;;7.30;;
9240;SDS011;53485;49.326;9.738;2023-02-03T05:10:07;11.33;;;6.93;;
9240;SDS011;53485;49.326;9.738;2023-02-03T05:12:33;12.13;;;7.90;;
9240;SDS011;53485;49.326;9.738;2023-02-03T05:15:00;15.03;;;10.17;;
9240;SDS011;53485;49.326;9.738;2023-02-03T05:17:26;15.90;;;9.47;;
9240;SDS011;53485;49.326;9.738;2023-02-03T05:19:53;14.03;;;9.57;;
9240;SDS011;53485;49.326;9.738;2023-02-03T05:22:20;15.00;;;10.20;;
9240;SDS011;53485;49.326;9.738;2023-02-03T05:24:46;19.63;;;10.50;;
9240;SDS011;53485;49.326;9.738;2023-02-03T05:27:13;14.60;;;9.43;;
9240;SDS011;53485;49.326;9.738;2023-02-03T05:29:40;17.40;;;10.80;;
9240;SDS011;53485;49.326;9.738;2023-02-03T05:32:06;17.73;;;11.53;;
9240;SDS011;53485;49.326;9.738;2023-02-03T05:34:33;17.37;;;9.67;;
9240;SDS011;53485;49.326;9.738;2023-02-03T05:37:00;15.93;;;10.23;;
9240;SDS011;53485;49.326;9.738;2023-02-03T05:39:26;22.10;;;12.17;;
9240;SDS011;53485;49.326;9.738;2023-02-03T05:41:53;20.50;;;11.73;;
9240;SDS011;53485;49.326;9.738;2023-02-03T05:44:20;16.63;;;10.53;;
9240;SDS011;53485;49.326;9.738;2023-02-03T05:46:45;23.20;;;12.13;;
9240;SDS011;53485;49.326;9.738;2023-02-03T05:49:12;19.10;;;11.10;;
9240;SDS011;53485;49.326;9.738;2023-02-03T05:51:39;27.83;;;12.03;;
9240;SDS011;53485;49.326;9.738;2023-02-03T05:54:05;26.90;;;12.53;;
9240;SDS011;53485;49.326;9.738;2023-02-03T05:56:31;23.40;;;13.47;;
9240;SDS011;53485;49.326;9.738;2023-02-03T05:58:58;26.43;;;12.73;;
9240;SDS011;53485;49.326;9.738;2023-02-03T06:01:24;22.50;;;12.03;;
9240;SDS011;53485;49.326;9.738;2023-02-03T06:03:51;25.03;;;12.30;;
9240;SDS011;53485;49.326;9.738;2023-02-03T06:06:18;19.83;;;11.93;;
9240;SDS011;53485;49.326;9.738;2023-02-03T06:08:44;20.87;;;10.90;;
9240;SDS011;53485;49.326;9.738;2023-02-03T06:11:11;22.67;;;10.77;;
9240;SDS011;53485;49.326;9.738;2023-02-03T06:13:37;23.37;;;11.47;;
9240;SDS011;53485;49.326;9.738;2023-02-03T06:16:04;20.07;;;10.53;;
9240;SDS011;53485;49.326;9.738;2023-02-03T06:18:30;26.03;;;11.83;;
9240;SDS011;53485;49.326;9.738;2023-02-03T06:20:57;23.10;;;12.07;;
9240;SDS011;53485;49.326;9.738;2023-02-03T06:23:23;21.90;;;11.80;;
9240;SDS011;53485;49.326;9.738;2023-02-03T06:25:50;27.00;;;11.60;;
9240;SDS011;53485;49.326;9.738;2023-02-03T06:28:16;28.37;;;13.53;;
9240;SDS011;53485;49.326;9.738;2023-02-03T06:30:43;22.53;;;12.07;;
9240;SDS011;53485;49.326;9.738;2023-02-03T06:33:09;30.23;;;11.90;;
9240;SDS011;53485;49.326;9.738;2023-02-03T06:35:35;24.03;;;11.83;;
9240;SDS011;53485;49.326;9.738;2023-02-03T06:38:02;21.27;;;11.83;;
9240;SDS011;53485;49.326;9.738;2023-02-03T06:40:28;32.40;;;12.63;;
9240;SDS011;53485;49.326;9.738;2023-02-03T06:42:55;29.47;;;12.07;;
9240;SDS011;53485;49.326;9.738;2023-02-03T06:45:22;27.63;;;11.77;;
9240;SDS011;53485;49.326;9.738;2023-02-03T06:47:48;23.83;;;11.80;;
9240;SDS011;53485;49.326;9.738;2023-02-03T06:50:15;28.53;;;12.17;;
9240;SDS011;53485;49.326;9.738;2023-02-03T06:52:41;29.07;;;13.03;;
9240;SDS011;53485;49.326;9.738;2023-02-03T06:55:08;26.50;;;12.60;;
9240;SDS011;53485;49.326;9.738;2023-02-03T06:57:34;29.57;;;13.77;;
9240;SDS011;53485;49.326;9.738;2023-02-03T07:00:01;27.33;;;13.27;;
9240;SDS011;53485;49.326;9.738;2023-02-03T07:02:27;34.47;;;14.23;;
9240;SDS011;53485;49.326;9.738;2023-02-03T07:04:54;33.03;;;13.97;;
9240;SDS011;53485;49.326;9.738;2023-02-03T07:07:21;24.17;;;12.23;;
9240;SDS011;53485;49.326;9.738;2023-02-03T07:09:47;34.10;;;14.20;;
9240;SDS011;53485;49.326;9.738;2023-02-03T07:12:14;40.67;;;17.43;;
9240;SDS011;53485;49.326;9.738;2023-02-03T07:14:40;81.07;;;25.23;;
9240;SDS011;53485;49.326;9.738;2023-02-03T07:17:07;59.73;;;22.27;;
9240;SDS011;53485;49.326;9.738;2023-02-03T07:19:34;53.07;;;21.20;;
9240;SDS011;53485;49.326;9.738;2023-02-03T07:22:00;49.73;;;21.53;;
9240;SDS011;53485;49.326;9.738;2023-02-03T07:24:27;51.20;;;20.23;;
9240;SDS011;53485;49.326;9.738;2023-02-03T07:26:54;49.57;;;21.30;;
9240;SDS011;53485;49.326;9.738;2023-02-03T07:29:20;53.33;;;22.20;;
9240;SDS011;53485;49.326;9.738;2023-02-03T07:31:47;51.40;;;22.10;;
9240;SDS011;53485;49.326;9.738;2023-02-03T07:34:14;50.73;;;21.73;;
9240;SDS011;53485;49.326;9.738;2023-02-03T07:36:40;51.73;;;22.90;;
9240;SDS011;53485;49.326;9.738;2023-02-03T07:39:07;54.53;;;23.23;;
9240;SDS011;53485;49.326;9.738;2023-02-03T07:41:34;53.50;;;24.13;;
9240;SDS011;53485;49.326;9.738;2023-02-03T07:44:00;61.10;;;25.03;;
9240;SDS011;53485;49.326;9.738;2023-02-03T07:46:27;53.37;;;23.40;;
9240;SDS011;53485;49.326;9.738;2023-02-03T07:48:53;56.40;;;22.90;;
9240;SDS011;53485;49.326;9.738;2023-02-03T07:51:20;52.30;;;21.37;;
9240;SDS011;53485;49.326;9.738;2023-02-03T07:53:46;77.13;;;23.80;;
9240;SDS011;53485;49.326;9.738;2023-02-03T07:56:13;73.03;;;23.87;;
9240;SDS011;53485;49.326;9.738;2023-02-03T07:58:40;56.73;;;21.97;;
9240;SDS011;53485;49.326;9.738;2023-02-03T08:01:09;56.97;;;22.83;;
9240;SDS011;53485;49.326;9.738;2023-02-03T08:03:34;78.23;;;27.20;;
9240;SDS011;53485;49.326;9.738;2023-02-03T08:06:01;69.80;;;28.20;;
9240;SDS011;53485;49.326;9.738;2023-02-03T08:08:28;93.17;;;30.80;;
9240;SDS011;53485;49.326;9.738;2023-02-03T08:10:54;106.37;;;32.03;;
9240;SDS011;53485;49.326;9.738;2023-02-03T08:13:20;115.27;;;34.57;;
9240;SDS011;53485;49.326;9.738;2023-02-03T08:15:47;86.67;;;30.27;;
9240;SDS011;53485;49.326;9.738;2023-02-03T08:18:14;372.07;;;68.60;;
9240;SDS011;53485;49.326;9.738;2023-02-03T08:20:40;41.67;;;23.07;;
9240;SDS011;53485;49.326;9.738;2023-02-03T08:23:07;48.47;;;24.17;;
9240;SDS011;53485;49.326;9.738;2023-02-03T08:25:33;49.87;;;24.43;;
9240;SDS011;53485;49.326;9.738;2023-02-03T08:28:00;51.10;;;24.20;;
9240;SDS011;53485;49.326;9.738;2023-02-03T08:30:27;52.27;;;25.40;;
9240;SDS011;53485;49.326;9.738;2023-02-03T08:32:53;54.00;;;26.17;;
9240;SDS011;53485;49.326;9.738;2023-02-03T08:35:20;50.17;;;25.40;;
9240;SDS011;53485;49.326;9.738;2023-02-03T08:37:46;48.13;;;25.00;;
9240;SDS011;53485;49.326;9.738;2023-02-03T08:40:13;51.00;;;24.93;;
9240;SDS011;53485;49.326;9.738;2023-02-03T08:42:39;49.57;;;24.50;;
9240;SDS011;53485;49.326;9.738;2023-02-03T08:45:06;49.73;;;25.63;;
9240;SDS011;53485;49.326;9.738;2023-02-03T08:47:33;46.30;;;23.67;;
9240;SDS011;53485;49.326;9.738;2023-02-03T08:49:59;45.27;;;24.50;;
9240;SDS011;53485;49.326;9.738;2023-02-03T08:52:26;50.50;;;24.00;;
9240;SDS011;53485;49.326;9.738;2023-02-03T08:54:52;42.50;;;22.97;;
9240;SDS011;53485;49.326;9.738;2023-02-03T08:57:19;44.17;;;22.33;;
9240;SDS011;53485;49.326;9.738;2023-02-03T08:59:45;37.07;;;20.47;;
9240;SDS011;53485;49.326;9.738;2023-02-03T09:02:14;36.50;;;20.43;;
9240;SDS011;53485;49.326;9.738;2023-02-03T09:04:39;39.27;;;22.20;;
9240;SDS011;53485;49.326;9.738;2023-02-03T09:07:06;34.07;;;20.60;;
9240;SDS011;53485;49.326;9.738;2023-02-03T09:09:32;38.33;;;20.40;;
9240;SDS011;53485;49.326;9.738;2023-02-03T09:11:58;31.70;;;19.13;;
9240;SDS011;53485;49.326;9.738;2023-02-03T09:14:28;27.83;;;18.00;;
9240;SDS011;53485;49.326;9.738;2023-02-03T09:16:53;33.03;;;19.53;;
9240;SDS011;53485;49.326;9.738;2023-02-03T09:19:19;31.87;;;17.67;;
9240;SDS011;53485;49.326;9.738;2023-02-03T09:21:46;27.50;;;16.53;;
9240;SDS011;53485;49.326;9.738;2023-02-03T09:24:13;26.70;;;17.00;;
9240;SDS011;53485;49.326;9.738;2023-02-03T09:26:39;26.47;;;15.43;;
9240;SDS011;53485;49.326;9.738;2023-02-03T09:29:06;28.13;;;17.60;;
9240;SDS011;53485;49.326;9.738;2023-02-03T09:31:32;28.90;;;17.43;;
9240;SDS011;53485;49.326;9.738;2023-02-03T09:33:59;28.20;;;18.07;;
9240;SDS011;53485;49.326;9.738;2023-02-03T09:36:25;25.33;;;16.43;;
9240;SDS011;53485;49.326;9.738;2023-02-03T09:38:51;27.30;;;17.47;;
9240;SDS011;53485;49.326;9.738;2023-02-03T09:41:21;27.30;;;17.97;;
9240;SDS011;53485;49.326;9.738;2023-02-03T09:43:50;29.20;;;17.97;;
9240;SDS011;53485;49.326;9.738;2023-02-03T09:46:18;28.23;;;17.23;;
9240;SDS011;53485;49.326;9.738;2023-02-03T09:48:47;25.77;;;17.33;;
9240;SDS011;53485;49.326;9.738;2023-02-03T09:51:18;26.87;;;18.93;;
9240;SDS011;53485;49.326;9.738;2023-02-03T09:53:43;28.53;;;17.60;;
9240;SDS011;53485;49.326;9.738;2023-02-03T09:56:11;26.23;;;16.57;;
9240;SDS011;53485;49.326;9.738;2023-02-03T09:58:35;28.93;;;18.47;;
9240;SDS011;53485;49.326;9.738;2023-02-03T10:01:02;26.07;;;18.20;;
9240;SDS011;53485;49.326;9.738;2023-02-03T10:03:36;27.40;;;17.80;;
9240;SDS011;53485;49.326;9.738;2023-02-03T10:06:11;23.97;;;16.57;;
9240;SDS011;53485;49.326;9.738;2023-02-03T10:08:40;23.87;;;16.17;;
9240;SDS011;53485;49.326;9.738;2023-02-03T10:11:06;20.43;;;14.53;;
9240;SDS011;53485;49.326;9.738;2023-02-03T10:13:39;22.90;;;14.10;;
9240;SDS011;53485;49.326;9.738;2023-02-03T10:17:12;20.67;;;14.47;;
9240;SDS011;53485;49.326;9.738;2023-02-03T10:18:45;19.37;;;13.40;;
9240;SDS011;53485;49.326;9.738;2023-02-03T10:21:12;17.23;;;11.20;;
9240;SDS011;53485;49.326;9.738;2023-02-03T10:23:38;15.80;;;12.50;;
9240;SDS011;53485;49.326;9.738;2023-02-03T10:26:05;14.37;;;10.90;;
9240;SDS011;53485;49.326;9.738;2023-02-03T10:28:35;13.73;;;11.13;;
9240;SDS011;53485;49.326;9.738;2023-02-03T10:31:00;14.90;;;11.53;;
9240;SDS011;53485;49.326;9.738;2023-02-03T10:33:27;17.33;;;10.67;;
9240;SDS011;53485;49.326;9.738;2023-02-03T10:35:53;14.67;;;11.17;;
9240;SDS011;53485;49.326;9.738;2023-02-03T10:38:24;13.47;;;10.33;;
9240;SDS011;53485;49.326;9.738;2023-02-03T10:40:47;17.87;;;11.43;;
9240;SDS011;53485;49.326;9.738;2023-02-03T10:43:13;14.23;;;11.40;;
9240;SDS011;53485;49.326;9.738;2023-02-03T10:45:46;15.67;;;11.70;;
9240;SDS011;53485;49.326;9.738;2023-02-03T10:48:14;16.20;;;12.60;;
9240;SDS011;53485;49.326;9.738;2023-02-03T10:50:41;15.90;;;11.80;;
9240;SDS011;53485;49.326;9.738;2023-02-03T10:53:18;14.37;;;11.33;;
9240;SDS011;53485;49.326;9.738;2023-02-03T10:55:32;15.87;;;11.73;;
9240;SDS011;53485;49.326;9.738;2023-02-03T10:57:59;16.97;;;11.00;;
9240;SDS011;53485;49.326;9.738;2023-02-03T11:00:28;15.60;;;11.87;;
9240;SDS011;53485;49.326;9.738;2023-02-03T11:02:55;17.90;;;11.97;;
9240;SDS011;53485;49.326;9.738;2023-02-03T11:05:21;16.50;;;11.17;;
9240;SDS011;53485;49.326;9.738;2023-02-03T11:07:46;17.13;;;12.57;;
9240;SDS011;53485;49.326;9.738;2023-02-03T11:12:45;16.00;;;12.07;;
9240;SDS011;53485;49.326;9.738;2023-02-03T11:15:13;16.17;;;12.43;;
9240;SDS011;53485;49.326;9.738;2023-02-03T11:17:38;12.27;;;10.93;;
9240;SDS011;53485;49.326;9.738;2023-02-03T11:20:12;12.23;;;9.30;;
9240;SDS011;53485;49.326;9.738;2023-02-03T11:22:31;9.43;;;8.37;;
9240;SDS011;53485;49.326;9.738;2023-02-03T11:24:57;10.90;;;8.83;;
9240;SDS011;53485;49.326;9.738;2023-02-03T11:27:23;11.37;;;8.90;;
9240;SDS011;53485;49.326;9.738;2023-02-03T11:29:50;11.50;;;9.93;;
9240;SDS011;53485;49.326;9.738;2023-02-03T11:32:19;10.73;;;8.13;;
9240;SDS011;53485;49.326;9.738;2023-02-03T11:34:48;13.13;;;8.67;;
9240;SDS011;53485;49.326;9.738;2023-02-03T11:39:44;11.43;;;8.73;;
9240;SDS011;53485;49.326;9.738;2023-02-03T11:44:43;11.40;;;6.97;;
9240;SDS011;53485;49.326;9.738;2023-02-03T11:47:11;8.73;;;7.63;;
9240;SDS011;53485;49.326;9.738;2023-02-03T11:49:42;7.97;;;7.17;;
9240;SDS011;53485;49.326;9.738;2023-02-03T11:52:11;9.53;;;7.33;;
9240;SDS011;53485;49.326;9.738;2023-02-03T11:54:39;11.13;;;7.80;;
9240;SDS011;53485;49.326;9.738;2023-02-03T11:57:18;7.73;;;6.93;;
9240;SDS011;53485;49.326;9.738;2023-02-03T11:59:49;10.50;;;8.73;;
9240;SDS011;53485;49.326;9.738;2023-02-03T12:07:36;12.10;;;9.40;;
9240;SDS011;53485;49.326;9.738;2023-02-03T12:10:10;12.57;;;9.93;;
9240;SDS011;53485;49.326;9.738;2023-02-03T12:15:20;12.20;;;10.10;;
9240;SDS011;53485;49.326;9.738;2023-02-03T12:17:46;12.03;;;8.77;;
9240;SDS011;53485;49.326;9.738;2023-02-03T12:20:17;14.53;;;9.70;;
9240;SDS011;53485;49.326;9.738;2023-02-03T12:22:45;15.37;;;9.27;;
9240;SDS011;53485;49.326;9.738;2023-02-03T12:25:16;12.53;;;9.47;;
9240;SDS011;53485;49.326;9.738;2023-02-03T12:27:40;10.83;;;9.47;;
9240;SDS011;53485;49.326;9.738;2023-02-03T12:32:51;11.30;;;8.93;;
9240;SDS011;53485;49.326;9.738;2023-02-03T12:35:24;11.63;;;9.60;;
9240;SDS011;53485;49.326;9.738;2023-02-03T12:37:55;11.13;;;8.77;;
9240;SDS011;53485;49.326;9.738;2023-02-03T12:40:28;10.10;;;9.03;;
9240;SDS011;53485;49.326;9.738;2023-02-03T12:42:53;10.67;;;8.70;;
9240;SDS011;53485;49.326;9.738;2023-02-03T12:45:18;10.77;;;9.63;;
9240;SDS011;53485;49.326;9.738;2023-02-03T12:47:44;9.53;;;8.57;;
9240;SDS011;53485;49.326;9.738;2023-02-03T12:50:16;9.57;;;8.63;;
9240;SDS011;53485;49.326;9.738;2023-02-03T12:52:43;9.87;;;7.90;;
9240;SDS011;53485;49.326;9.738;2023-02-03T12:57:55;10.20;;;8.60;;
9240;SDS011;53485;49.326;9.738;2023-02-03T13:00:37;9.43;;;8.33;;
9240;SDS011;53485;49.326;9.738;2023-02-03T13:03:11;8.23;;;7.40;;
9240;SDS011;53485;49.326;9.738;2023-02-03T13:10:52;7.80;;;6.90;;
9240;SDS011;53485;49.326;9.738;2023-02-03T13:13:22;8.97;;;7.30;;
9240;SDS011;53485;49.326;9.738;2023-02-03T13:15:44;8.00;;;7.20;;
9240;SDS011;53485;49.326;9.738;2023-02-03T13:18:18;8.07;;;6.80;;
9240;SDS011;53485;49.326;9.738;2023-02-03T13:20:39;7.13;;;6.43;;
9240;SDS011;53485;49.326;9.738;2023-02-03T13:23:07;5.80;;;5.30;;
9240;SDS011;53485;49.326;9.738;2023-02-03T13:25:57;7.00;;;6.30;;
9240;SDS011;53485;49.326;9.738;2023-02-03T13:28:27;8.47;;;5.80;;
9240;SDS011;53485;49.326;9.738;2023-02-03T13:33:55;6.17;;;5.57;;
9240;SDS011;53485;49.326;9.738;2023-02-03T13:36:26;6.17;;;5.57;;
9240;SDS011;53485;49.326;9.738;2023-02-03T13:38:54;6.07;;;5.33;;
9240;SDS011;53485;49.326;9.738;2023-02-03T13:41:19;5.97;;;5.27;;
9240;SDS011;53485;49.326;9.738;2023-02-03T13:43:44;5.23;;;4.53;;
9240;SDS011;53485;49.326;9.738;2023-02-03T13:46:18;5.07;;;4.67;;
9240;SDS011;53485;49.326;9.738;2023-02-03T13:48:36;5.63;;;5.13;;
9240;SDS011;53485;49.326;9.738;2023-02-03T13:51:05;6.17;;;5.57;;
9240;SDS011;53485;49.326;9.738;2023-02-03T13:53:32;7.90;;;6.70;;
9240;SDS011;53485;49.326;9.738;2023-02-03T13:55:58;6.00;;;5.50;;
9240;SDS011;53485;49.326;9.738;2023-02-03T13:58:24;7.80;;;5.47;;
9240;SDS011;53485;49.326;9.738;2023-02-03T14:01:05;6.37;;;5.77;;
9240;SDS011;53485;49.326;9.738;2023-02-03T14:03:39;8.37;;;7.37;;
9240;SDS011;53485;49.326;9.738;2023-02-03T14:05:58;10.63;;;8.83;;
9240;SDS011;53485;49.326;9.738;2023-02-03T14:13:37;10.73;;;8.77;;
9240;SDS011;53485;49.326;9.738;2023-02-03T14:18:50;11.33;;;9.23;;
9240;SDS011;53485;49.326;9.738;2023-02-03T14:21:18;10.47;;;7.93;;
9240;SDS011;53485;49.326;9.738;2023-02-03T14:23:45;9.23;;;8.00;;
9240;SDS011;53485;49.326;9.738;2023-02-03T14:26:18;9.73;;;8.37;;
9240;SDS011;53485;49.326;9.738;2023-02-03T14:28:43;10.40;;;8.67;;
9240;SDS011;53485;49.326;9.738;2023-02-03T14:31:09;10.70;;;8.20;;
9240;SDS011;53485;49.326;9.738;2023-02-03T14:36:24;9.47;;;7.63;;
9240;SDS011;53485;49.326;9.738;2023-02-03T14:38:33;8.33;;;6.73;;
9240;SDS011;53485;49.326;9.738;2023-02-03T14:41:00;8.43;;;7.17;;
9240;SDS011;53485;49.326;9.738;2023-02-03T14:43:31;9.80;;;7.20;;
9240;SDS011;53485;49.326;9.738;2023-02-03T14:46:05;6.63;;;5.93;;
9240;SDS011;53485;49.326;9.738;2023-02-03T14:48:32;10.13;;;7.00;;
9240;SDS011;53485;49.326;9.738;2023-02-03T14:50:59;7.00;;;5.53;;
9240;SDS011;53485;49.326;9.738;2023-02-03T14:53:27;7.77;;;5.83;;
9240;SDS011;53485;49.326;9.738;2023-02-03T14:55:58;5.60;;;5.03;;
9240;SDS011;53485;49.326;9.738;2023-02-03T14:58:28;5.40;;;4.87;;
9240;SDS011;53485;49.326;9.738;2023-02-03T15:00:51;4.57;;;4.17;;
9240;SDS011;53485;49.326;9.738;2023-02-03T15:03:18;5.73;;;4.57;;
9240;SDS011;53485;49.326;9.738;2023-02-03T15:05:46;5.27;;;4.77;;
9240;SDS011;53485;49.326;9.738;2023-02-03T15:10:43;3.60;;;3.30;;
9240;SDS011;53485;49.326;9.738;2023-02-03T15:13:22;3.73;;;3.43;;
9240;SDS011;53485;49.326;9.738;2023-02-03T15:15:37;5.43;;;3.90;;
9240;SDS011;53485;49.326;9.738;2023-02-03T15:20:36;3.53;;;3.07;;
9240;SDS011;53485;49.326;9.738;2023-02-03T15:23:01;4.40;;;3.80;;
9240;SDS011;53485;49.326;9.738;2023-02-03T15:25:28;4.17;;;3.77;;
9240;SDS011;53485;49.326;9.738;2023-02-03T15:27:54;4.77;;;4.37;;
9240;SDS011;53485;49.326;9.738;2023-02-03T15:30:24;5.13;;;4.47;;
9240;SDS011;53485;49.326;9.738;2023-02-03T15:33:05;4.60;;;4.03;;
9240;SDS011;53485;49.326;9.738;2023-02-03T15:35:32;5.00;;;4.43;;
9240;SDS011;53485;49.326;9.738;2023-02-03T15:37:59;4.93;;;4.50;;
9240;SDS011;53485;49.326;9.738;2023-02-03T15:40:24;5.97;;;3.73;;